sensor_id;sensor_type;location;lat;lon;timestamp;temperature;humidity
975;DHT22;6115;49.296;10.602;2023-06-26T00:03:36;18.60;50.40
975;DHT22;6115;49.296;10.602;2023-06-26T00:08:36;18.40;50.80
975;DHT22;6115;49.296;10.602;2023-06-26T00:13:37;18.30;50.90
975;DHT22;6115;49.296;10.602;2023-06-26T00:18:38;18.30;51.10
975;DHT22;6115;49.296;10.602;2023-06-26T00:23:38;18.20;51.20
975;DHT22;6115;49.296;10.602;2023-06-26T00:28:39;18.10;51.10
975;DHT22;6115;49.296;10.602;2023-06-26T00:33:39;18.10;51.40
975;DHT22;6115;49.296;10.602;2023-06-26T00:38:40;18.00;51.60
975;DHT22;6115;49.296;10.602;2023-06-26T00:43:40;18.00;51.90
975;DHT22;6115;49.296;10.602;2023-06-26T00:48:42;17.90;52.20
975;DHT22;6115;49.296;10.602;2023-06-26T00:53:43;17.80;52.70
975;DHT22;6115;49.296;10.602;2023-06-26T00:58:44;17.70;52.60
975;DHT22;6115;49.296;10.602;2023-06-26T01:03:48;17.60;52.50
975;DHT22;6115;49.296;10.602;2023-06-26T01:08:52;17.50;53.00
975;DHT22;6115;49.296;10.602;2023-06-26T01:13:53;17.40;53.00
975;DHT22;6115;49.296;10.602;2023-06-26T01:18:55;17.40;53.50
975;DHT22;6115;49.296;10.602;2023-06-26T01:24:10;17.30;52.90
975;DHT22;6115;49.296;10.602;2023-06-26T01:29:21;17.20;53.40
975;DHT22;6115;49.296;10.602;2023-06-26T01:34:23;17.10;53.80
975;DHT22;6115;49.296;10.602;2023-06-26T01:39:24;16.90;54.20
975;DHT22;6115;49.296;10.602;2023-06-26T01:44:29;16.90;54.40
975;DHT22;6115;49.296;10.602;2023-06-26T01:49:51;16.90;54.70
975;DHT22;6115;49.296;10.602;2023-06-26T01:55:03;16.80;54.70
975;DHT22;6115;49.296;10.602;2023-06-26T02:00:06;16.70;54.70
975;DHT22;6115;49.296;10.602;2023-06-26T02:05:11;16.60;54.70
975;DHT22;6115;49.296;10.602;2023-06-26T02:10:12;16.60;55.00
975;DHT22;6115;49.296;10.602;2023-06-26T02:15:12;16.60;55.20
975;DHT22;6115;49.296;10.602;2023-06-26T02:20:13;16.50;55.00
975;DHT22;6115;49.296;10.602;2023-06-26T02:25:14;16.30;55.30
975;DHT22;6115;49.296;10.602;2023-06-26T02:30:15;16.30;55.90
975;DHT22;6115;49.296;10.602;2023-06-26T02:35:15;16.30;55.90
975;DHT22;6115;49.296;10.602;2023-06-26T02:40:16;16.20;55.80
975;DHT22;6115;49.296;10.602;2023-06-26T02:45:16;16.20;55.80
975;DHT22;6115;49.296;10.602;2023-06-26T02:50:17;16.10;55.70
975;DHT22;6115;49.296;10.602;2023-06-26T02:55:18;16.00;56.00
975;DHT22;6115;49.296;10.602;2023-06-26T03:00:20;16.00;56.60
975;DHT22;6115;49.296;10.602;2023-06-26T03:05:20;15.90;56.90
975;DHT22;6115;49.296;10.602;2023-06-26T03:10:21;15.90;57.10
975;DHT22;6115;49.296;10.602;2023-06-26T03:15:22;16.00;56.80
975;DHT22;6115;49.296;10.602;2023-06-26T03:20:22;15.80;56.80
975;DHT22;6115;49.296;10.602;2023-06-26T03:25:23;15.80;56.90
975;DHT22;6115;49.296;10.602;2023-06-26T03:30:23;15.70;57.20
975;DHT22;6115;49.296;10.602;2023-06-26T03:35:24;15.70;57.40
975;DHT22;6115;49.296;10.602;2023-06-26T03:40:25;15.70;57.80
975;DHT22;6115;49.296;10.602;2023-06-26T03:45:25;15.70;57.60
975;DHT22;6115;49.296;10.602;2023-06-26T03:50:26;15.60;58.10
975;DHT22;6115;49.296;10.602;2023-06-26T03:55:26;15.50;58.30
975;DHT22;6115;49.296;10.602;2023-06-26T04:00:27;15.50;58.20
975;DHT22;6115;49.296;10.602;2023-06-26T04:05:28;15.50;57.90
975;DHT22;6115;49.296;10.602;2023-06-26T04:10:29;15.60;58.00
975;DHT22;6115;49.296;10.602;2023-06-26T04:15:30;15.60;58.10
975;DHT22;6115;49.296;10.602;2023-06-26T04:20:30;15.60;57.90
975;DHT22;6115;49.296;10.602;2023-06-26T04:25:31;15.70;58.30
975;DHT22;6115;49.296;10.602;2023-06-26T04:30:34;15.70;59.30
975;DHT22;6115;49.296;10.602;2023-06-26T04:35:35;15.70;58.80
975;DHT22;6115;49.296;10.602;2023-06-26T04:40:37;15.70;58.80
975;DHT22;6115;49.296;10.602;2023-06-26T04:45:38;15.80;59.00
975;DHT22;6115;49.296;10.602;2023-06-26T04:50:39;15.90;59.00
975;DHT22;6115;49.296;10.602;2023-06-26T04:55:40;16.00;59.00
975;DHT22;6115;49.296;10.602;2023-06-26T05:00:40;16.10;59.20
975;DHT22;6115;49.296;10.602;2023-06-26T05:05:43;16.30;59.30
975;DHT22;6115;49.296;10.602;2023-06-26T05:10:45;16.40;59.30
975;DHT22;6115;49.296;10.602;2023-06-26T05:15:46;16.50;59.30
975;DHT22;6115;49.296;10.602;2023-06-26T05:20:47;16.70;59.40
975;DHT22;6115;49.296;10.602;2023-06-26T05:25:48;16.80;59.40
975;DHT22;6115;49.296;10.602;2023-06-26T05:30:54;17.00;59.50
975;DHT22;6115;49.296;10.602;2023-06-26T05:35:55;17.20;59.50
975;DHT22;6115;49.296;10.602;2023-06-26T05:40:56;17.40;59.40
975;DHT22;6115;49.296;10.602;2023-06-26T05:45:57;17.60;59.40
975;DHT22;6115;49.296;10.602;2023-06-26T05:51:01;17.80;59.60
975;DHT22;6115;49.296;10.602;2023-06-26T05:56:01;18.10;59.20
975;DHT22;6115;49.296;10.602;2023-06-26T06:01:02;18.30;58.80
975;DHT22;6115;49.296;10.602;2023-06-26T06:06:03;18.70;58.00
975;DHT22;6115;49.296;10.602;2023-06-26T06:11:04;18.90;57.10
975;DHT22;6115;49.296;10.602;2023-06-26T06:16:04;19.20;54.90
975;DHT22;6115;49.296;10.602;2023-06-26T06:21:05;19.60;53.10
975;DHT22;6115;49.296;10.602;2023-06-26T06:26:06;19.90;51.60
975;DHT22;6115;49.296;10.602;2023-06-26T06:31:06;20.30;51.10
975;DHT22;6115;49.296;10.602;2023-06-26T06:36:07;20.70;49.50
975;DHT22;6115;49.296;10.602;2023-06-26T06:41:07;21.10;48.80
975;DHT22;6115;49.296;10.602;2023-06-26T06:46:08;21.50;46.60
975;DHT22;6115;49.296;10.602;2023-06-26T06:51:10;21.90;45.70
975;DHT22;6115;49.296;10.602;2023-06-26T06:56:10;22.30;43.70
975;DHT22;6115;49.296;10.602;2023-06-26T07:01:11;22.70;42.20
975;DHT22;6115;49.296;10.602;2023-06-26T07:06:12;23.10;41.10
975;DHT22;6115;49.296;10.602;2023-06-26T07:11:12;23.50;40.40
975;DHT22;6115;49.296;10.602;2023-06-26T07:16:13;23.70;40.40
975;DHT22;6115;49.296;10.602;2023-06-26T07:21:15;24.00;40.20
975;DHT22;6115;49.296;10.602;2023-06-26T07:26:16;24.30;39.00
975;DHT22;6115;49.296;10.602;2023-06-26T07:31:16;24.50;38.20
975;DHT22;6115;49.296;10.602;2023-06-26T07:36:17;24.70;38.20
975;DHT22;6115;49.296;10.602;2023-06-26T07:41:17;24.90;38.30
975;DHT22;6115;49.296;10.602;2023-06-26T07:46:18;25.00;38.50
975;DHT22;6115;49.296;10.602;2023-06-26T07:51:18;25.20;38.30
975;DHT22;6115;49.296;10.602;2023-06-26T07:56:19;25.40;38.00
975;DHT22;6115;49.296;10.602;2023-06-26T08:01:20;25.60;37.80
975;DHT22;6115;49.296;10.602;2023-06-26T08:06:20;25.80;37.00
975;DHT22;6115;49.296;10.602;2023-06-26T08:11:21;25.90;35.90
975;DHT22;6115;49.296;10.602;2023-06-26T08:16:22;26.30;34.80
975;DHT22;6115;49.296;10.602;2023-06-26T08:21:22;26.40;34.20
975;DHT22;6115;49.296;10.602;2023-06-26T08:26:23;26.60;33.90
975;DHT22;6115;49.296;10.602;2023-06-26T08:31:23;26.80;33.60
975;DHT22;6115;49.296;10.602;2023-06-26T08:36:24;27.00;33.70
975;DHT22;6115;49.296;10.602;2023-06-26T08:41:25;27.20;33.10
975;DHT22;6115;49.296;10.602;2023-06-26T08:46:25;27.40;31.90
975;DHT22;6115;49.296;10.602;2023-06-26T08:51:28;27.60;31.30
975;DHT22;6115;49.296;10.602;2023-06-26T08:56:35;27.70;31.20
975;DHT22;6115;49.296;10.602;2023-06-26T09:01:36;28.00;30.30
975;DHT22;6115;49.296;10.602;2023-06-26T09:06:37;28.20;30.10
975;DHT22;6115;49.296;10.602;2023-06-26T09:11:39;28.40;29.40
975;DHT22;6115;49.296;10.602;2023-06-26T09:16:40;28.50;28.80
975;DHT22;6115;49.296;10.602;2023-06-26T09:21:44;28.70;28.40
975;DHT22;6115;49.296;10.602;2023-06-26T09:26:45;29.00;28.50
975;DHT22;6115;49.296;10.602;2023-06-26T09:31:45;29.00;28.50
975;DHT22;6115;49.296;10.602;2023-06-26T09:36:46;29.20;28.60
975;DHT22;6115;49.296;10.602;2023-06-26T09:41:48;29.50;28.20
975;DHT22;6115;49.296;10.602;2023-06-26T09:46:48;29.70;27.00
975;DHT22;6115;49.296;10.602;2023-06-26T09:51:50;29.90;26.20
975;DHT22;6115;49.296;10.602;2023-06-26T09:56:50;30.10;26.00
975;DHT22;6115;49.296;10.602;2023-06-26T10:01:58;30.20;26.90
975;DHT22;6115;49.296;10.602;2023-06-26T10:07:02;30.40;26.20
975;DHT22;6115;49.296;10.602;2023-06-26T10:12:25;30.70;26.20
975;DHT22;6115;49.296;10.602;2023-06-26T10:17:34;31.20;25.00
975;DHT22;6115;49.296;10.602;2023-06-26T10:22:47;31.50;25.10
975;DHT22;6115;49.296;10.602;2023-06-26T10:27:53;31.80;25.30
975;DHT22;6115;49.296;10.602;2023-06-26T10:32:55;31.70;24.20
975;DHT22;6115;49.296;10.602;2023-06-26T10:38:01;31.30;25.60
975;DHT22;6115;49.296;10.602;2023-06-26T10:43:07;31.60;25.40
975;DHT22;6115;49.296;10.602;2023-06-26T10:48:14;31.70;24.70
975;DHT22;6115;49.296;10.602;2023-06-26T10:58:34;32.30;25.00
975;DHT22;6115;49.296;10.602;2023-06-26T11:03:46;32.20;24.60
975;DHT22;6115;49.296;10.602;2023-06-26T11:08:54;32.10;24.90
975;DHT22;6115;49.296;10.602;2023-06-26T11:13:59;32.00;24.70
975;DHT22;6115;49.296;10.602;2023-06-26T11:19:00;32.30;23.90
975;DHT22;6115;49.296;10.602;2023-06-26T11:24:02;32.40;23.40
975;DHT22;6115;49.296;10.602;2023-06-26T11:29:03;32.40;24.10
975;DHT22;6115;49.296;10.602;2023-06-26T11:34:06;32.60;22.90
975;DHT22;6115;49.296;10.602;2023-06-26T11:39:11;32.30;23.30
975;DHT22;6115;49.296;10.602;2023-06-26T11:44:18;32.30;23.00
975;DHT22;6115;49.296;10.602;2023-06-26T11:49:23;32.30;23.20
975;DHT22;6115;49.296;10.602;2023-06-26T11:54:27;32.20;23.80
975;DHT22;6115;49.296;10.602;2023-06-26T11:59:49;32.50;24.20
975;DHT22;6115;49.296;10.602;2023-06-26T12:04:50;32.70;24.70
975;DHT22;6115;49.296;10.602;2023-06-26T12:09:51;32.80;24.90
975;DHT22;6115;49.296;10.602;2023-06-26T12:14:52;32.70;24.70
975;DHT22;6115;49.296;10.602;2023-06-26T12:19:52;32.80;24.60
975;DHT22;6115;49.296;10.602;2023-06-26T12:24:56;32.90;25.00
975;DHT22;6115;49.296;10.602;2023-06-26T12:29:57;32.80;25.20
975;DHT22;6115;49.296;10.602;2023-06-26T12:34:58;32.80;24.70
975;DHT22;6115;49.296;10.602;2023-06-26T12:39:59;32.80;26.00
975;DHT22;6115;49.296;10.602;2023-06-26T12:45:15;33.10;25.40
975;DHT22;6115;49.296;10.602;2023-06-26T12:50:16;32.90;25.40
975;DHT22;6115;49.296;10.602;2023-06-26T12:55:17;32.70;25.80
975;DHT22;6115;49.296;10.602;2023-06-26T13:00:18;32.20;26.00
975;DHT22;6115;49.296;10.602;2023-06-26T13:05:19;31.80;27.10
975;DHT22;6115;49.296;10.602;2023-06-26T13:10:19;31.80;27.90
975;DHT22;6115;49.296;10.602;2023-06-26T13:15:20;31.90;27.80
975;DHT22;6115;49.296;10.602;2023-06-26T13:20:20;31.90;27.00
975;DHT22;6115;49.296;10.602;2023-06-26T13:25:21;31.90;27.70
975;DHT22;6115;49.296;10.602;2023-06-26T13:30:22;32.20;28.10
975;DHT22;6115;49.296;10.602;2023-06-26T13:35:23;32.70;26.20
975;DHT22;6115;49.296;10.602;2023-06-26T13:40:23;32.90;25.70
975;DHT22;6115;49.296;10.602;2023-06-26T13:45:25;33.00;25.30
975;DHT22;6115;49.296;10.602;2023-06-26T13:50:25;33.10;26.20
975;DHT22;6115;49.296;10.602;2023-06-26T13:55:26;33.00;26.60
975;DHT22;6115;49.296;10.602;2023-06-26T14:00:26;33.00;25.70
975;DHT22;6115;49.296;10.602;2023-06-26T14:05:27;33.00;26.10
975;DHT22;6115;49.296;10.602;2023-06-26T14:10:28;33.00;26.60
975;DHT22;6115;49.296;10.602;2023-06-26T14:15:29;32.90;27.30
975;DHT22;6115;49.296;10.602;2023-06-26T14:20:29;33.00;28.50
975;DHT22;6115;49.296;10.602;2023-06-26T14:25:32;33.00;28.50
975;DHT22;6115;49.296;10.602;2023-06-26T14:30:33;32.40;29.10
975;DHT22;6115;49.296;10.602;2023-06-26T14:35:34;32.00;30.00
975;DHT22;6115;49.296;10.602;2023-06-26T14:40:35;31.80;30.80
975;DHT22;6115;49.296;10.602;2023-06-26T14:45:36;31.60;31.30
975;DHT22;6115;49.296;10.602;2023-06-26T14:50:37;31.70;31.30
975;DHT22;6115;49.296;10.602;2023-06-26T14:55:37;31.60;31.30
975;DHT22;6115;49.296;10.602;2023-06-26T15:00:38;31.60;31.10
975;DHT22;6115;49.296;10.602;2023-06-26T15:05:38;31.30;32.30
975;DHT22;6115;49.296;10.602;2023-06-26T15:10:39;31.10;32.70
975;DHT22;6115;49.296;10.602;2023-06-26T15:15:39;31.00;33.20
975;DHT22;6115;49.296;10.602;2023-06-26T15:20:40;31.10;33.80
975;DHT22;6115;49.296;10.602;2023-06-26T15:25:41;31.40;32.20
975;DHT22;6115;49.296;10.602;2023-06-26T15:30:41;31.50;31.50
975;DHT22;6115;49.296;10.602;2023-06-26T15:35:42;31.50;30.20
975;DHT22;6115;49.296;10.602;2023-06-26T15:40:42;31.20;30.50
975;DHT22;6115;49.296;10.602;2023-06-26T15:45:43;31.00;30.30
975;DHT22;6115;49.296;10.602;2023-06-26T15:50:45;30.70;30.20
975;DHT22;6115;49.296;10.602;2023-06-26T15:55:45;30.70;30.60
975;DHT22;6115;49.296;10.602;2023-06-26T16:00:46;30.80;30.20
975;DHT22;6115;49.296;10.602;2023-06-26T16:05:47;30.80;29.90
975;DHT22;6115;49.296;10.602;2023-06-26T16:10:48;30.70;29.40
975;DHT22;6115;49.296;10.602;2023-06-26T16:15:49;30.40;29.80
975;DHT22;6115;49.296;10.602;2023-06-26T16:20:53;30.20;29.60
975;DHT22;6115;49.296;10.602;2023-06-26T16:25:54;29.90;30.20
975;DHT22;6115;49.296;10.602;2023-06-26T16:30:54;29.90;29.90
975;DHT22;6115;49.296;10.602;2023-06-26T16:35:55;30.00;29.00
975;DHT22;6115;49.296;10.602;2023-06-26T16:40:56;29.90;29.00
975;DHT22;6115;49.296;10.602;2023-06-26T16:45:56;29.70;29.40
975;DHT22;6115;49.296;10.602;2023-06-26T16:50:57;29.60;29.30
975;DHT22;6115;49.296;10.602;2023-06-26T16:55:57;29.40;29.70
975;DHT22;6115;49.296;10.602;2023-06-26T17:00:58;29.20;29.80
975;DHT22;6115;49.296;10.602;2023-06-26T17:05:58;28.80;30.10
975;DHT22;6115;49.296;10.602;2023-06-26T17:10:59;28.70;30.60
975;DHT22;6115;49.296;10.602;2023-06-26T17:16:00;28.70;30.20
975;DHT22;6115;49.296;10.602;2023-06-26T17:21:00;28.50;30.00
975;DHT22;6115;49.296;10.602;2023-06-26T17:26:01;28.40;30.30
975;DHT22;6115;49.296;10.602;2023-06-26T17:31:01;28.40;30.30
975;DHT22;6115;49.296;10.602;2023-06-26T17:36:02;28.30;30.70
975;DHT22;6115;49.296;10.602;2023-06-26T17:41:04;28.10;31.40
975;DHT22;6115;49.296;10.602;2023-06-26T17:46:05;28.00;32.00
975;DHT22;6115;49.296;10.602;2023-06-26T17:51:06;27.90;32.50
975;DHT22;6115;49.296;10.602;2023-06-26T17:56:06;27.80;32.40
975;DHT22;6115;49.296;10.602;2023-06-26T18:01:07;27.50;35.50
975;DHT22;6115;49.296;10.602;2023-06-26T18:06:07;27.30;37.10
975;DHT22;6115;49.296;10.602;2023-06-26T18:11:08;27.20;37.90
975;DHT22;6115;49.296;10.602;2023-06-26T18:16:09;27.00;38.60
975;DHT22;6115;49.296;10.602;2023-06-26T18:21:09;26.90;39.20
975;DHT22;6115;49.296;10.602;2023-06-26T18:26:10;26.80;39.70
975;DHT22;6115;49.296;10.602;2023-06-26T18:31:10;26.70;40.20
975;DHT22;6115;49.296;10.602;2023-06-26T18:36:11;26.50;40.70
975;DHT22;6115;49.296;10.602;2023-06-26T18:41:15;26.40;41.10
975;DHT22;6115;49.296;10.602;2023-06-26T18:46:15;26.20;41.50
975;DHT22;6115;49.296;10.602;2023-06-26T18:51:16;26.00;42.00
975;DHT22;6115;49.296;10.602;2023-06-26T18:56:17;25.60;42.60
975;DHT22;6115;49.296;10.602;2023-06-26T19:01:17;25.50;42.30
975;DHT22;6115;49.296;10.602;2023-06-26T19:06:18;25.20;41.60
975;DHT22;6115;49.296;10.602;2023-06-26T19:11:19;25.00;40.40
975;DHT22;6115;49.296;10.602;2023-06-26T19:16:19;24.70;40.00
975;DHT22;6115;49.296;10.602;2023-06-26T19:21:20;24.60;40.40
975;DHT22;6115;49.296;10.602;2023-06-26T19:26:21;24.50;40.20
975;DHT22;6115;49.296;10.602;2023-06-26T19:31:22;24.30;39.60
975;DHT22;6115;49.296;10.602;2023-06-26T19:36:23;24.00;39.10
975;DHT22;6115;49.296;10.602;2023-06-26T19:41:24;23.90;39.10
975;DHT22;6115;49.296;10.602;2023-06-26T19:46:25;23.80;39.10
975;DHT22;6115;49.296;10.602;2023-06-26T19:51:26;23.60;39.00
975;DHT22;6115;49.296;10.602;2023-06-26T19:56:27;23.50;38.80
975;DHT22;6115;49.296;10.602;2023-06-26T20:01:27;23.30;38.70
975;DHT22;6115;49.296;10.602;2023-06-26T20:06:28;23.20;38.60
975;DHT22;6115;49.296;10.602;2023-06-26T20:11:28;23.00;38.50
975;DHT22;6115;49.296;10.602;2023-06-26T20:16:29;22.90;38.60
975;DHT22;6115;49.296;10.602;2023-06-26T20:21:29;22.80;38.70
975;DHT22;6115;49.296;10.602;2023-06-26T20:26:30;22.70;38.70
975;DHT22;6115;49.296;10.602;2023-06-26T20:31:30;22.70;38.80
975;DHT22;6115;49.296;10.602;2023-06-26T20:36:32;22.60;39.00
975;DHT22;6115;49.296;10.602;2023-06-26T20:41:32;22.50;38.80
975;DHT22;6115;49.296;10.602;2023-06-26T20:46:33;22.50;38.80
975;DHT22;6115;49.296;10.602;2023-06-26T20:51:37;22.40;38.70
975;DHT22;6115;49.296;10.602;2023-06-26T20:56:38;22.40;38.70
975;DHT22;6115;49.296;10.602;2023-06-26T21:01:39;22.30;38.70
975;DHT22;6115;49.296;10.602;2023-06-26T21:06:39;22.00;38.60
975;DHT22;6115;49.296;10.602;2023-06-26T21:11:40;21.80;38.80
975;DHT22;6115;49.296;10.602;2023-06-26T21:16:40;21.80;38.60
975;DHT22;6115;49.296;10.602;2023-06-26T21:21:41;21.70;38.90
975;DHT22;6115;49.296;10.602;2023-06-26T21:26:41;21.60;39.20
975;DHT22;6115;49.296;10.602;2023-06-26T21:31:42;21.50;39.30
975;DHT22;6115;49.296;10.602;2023-06-26T21:36:43;21.50;39.00
975;DHT22;6115;49.296;10.602;2023-06-26T21:41:43;21.30;39.50
975;DHT22;6115;49.296;10.602;2023-06-26T21:46:44;21.20;39.60
975;DHT22;6115;49.296;10.602;2023-06-26T21:51:45;21.10;39.70
975;DHT22;6115;49.296;10.602;2023-06-26T21:56:46;21.10;39.80
975;DHT22;6115;49.296;10.602;2023-06-26T22:01:46;21.10;39.80
975;DHT22;6115;49.296;10.602;2023-06-26T22:06:47;21.10;39.80
975;DHT22;6115;49.296;10.602;2023-06-26T22:11:47;21.00;40.00
975;DHT22;6115;49.296;10.602;2023-06-26T22:16:48;20.90;40.00
975;DHT22;6115;49.296;10.602;2023-06-26T22:21:48;20.80;40.40
975;DHT22;6115;49.296;10.602;2023-06-26T22:26:49;20.70;40.30
975;DHT22;6115;49.296;10.602;2023-06-26T22:31:49;20.80;40.40
975;DHT22;6115;49.296;10.602;2023-06-26T22:36:51;20.70;40.20
975;DHT22;6115;49.296;10.602;2023-06-26T22:41:52;20.60;39.90
975;DHT22;6115;49.296;10.602;2023-06-26T22:46:52;20.60;39.60
975;DHT22;6115;49.296;10.602;2023-06-26T22:51:53;20.60;39.40
975;DHT22;6115;49.296;10.602;2023-06-26T22:56:54;20.40;39.50
975;DHT22;6115;49.296;10.602;2023-06-26T23:01:54;20.30;39.30
975;DHT22;6115;49.296;10.602;2023-06-26T23:06:55;20.20;39.20
975;DHT22;6115;49.296;10.602;2023-06-26T23:11:59;20.20;39.20
975;DHT22;6115;49.296;10.602;2023-06-26T23:17:00;20.10;39.30
975;DHT22;6115;49.296;10.602;2023-06-26T23:22:04;20.00;39.70
975;DHT22;6115;49.296;10.602;2023-06-26T23:27:09;20.00;40.20
975;DHT22;6115;49.296;10.602;2023-06-26T23:32:10;19.90;40.00
975;DHT22;6115;49.296;10.602;2023-06-26T23:37:11;19.90;40.10
975;DHT22;6115;49.296;10.602;2023-06-26T23:42:13;19.80;40.10
975;DHT22;6115;49.296;10.602;2023-06-26T23:47:16;19.70;40.30
975;DHT22;6115;49.296;10.602;2023-06-26T23:52:19;19.70;40.40
975;DHT22;6115;49.296;10.602;2023-06-26T23:57:20;19.80;40.40
